Time;durP1;ratioP1;P1;durP2;ratioP2;P2;SDS_P1;SDS_P2;PMS_P1;PMS_P2;Temp;Humidity;BMP_temperature;BMP_pressure;BME280_temperature;BME280_humidity;BME280_pressure;Samples;Min_cycle;Max_cycle;Signal;HPM_P1;HPM_P2
2024/03/11 00:01:07;;;;;;;8.27;5.83;;;;;;;5.43;62.04;100049.16;5103817;28;20196;-62
2024/03/11 00:03:35;;;;;;;10.10;5.30;;;;;;;5.41;62.10;100046.56;5109855;28;20208;-63
2024/03/11 00:06:03;;;;;;;8.10;5.40;;;;;;;5.43;61.54;100060.22;5111528;28;20655;-62
2024/03/11 00:08:32;;;;;;;7.77;4.63;;;;;;;5.43;61.59;100049.16;5111264;28;20195;-63
2024/03/11 00:11:00;;;;;;;13.07;4.33;;;;;;;5.41;61.60;100050.81;5111240;28;20493;-62
2024/03/11 00:13:32;;;;;;;10.27;5.67;;;;;;;5.39;61.39;100050.81;5111470;28;20231;-62
2024/03/11 00:16:03;;;;;;;8.43;5.40;;;;;;;5.40;61.30;100079.78;5110736;28;20697;-63
2024/03/11 00:18:30;;;;;;;7.73;4.90;;;;;;;5.39;61.27;100052.53;5109925;28;20626;-64
2024/03/11 00:20:59;;;;;;;8.77;5.13;;;;;;;5.39;60.96;100044.88;5108422;28;20204;-64
2024/03/11 00:23:27;;;;;;;8.60;5.00;;;;;;;5.41;60.89;100048.28;5111320;28;20596;-65
2024/03/11 00:25:56;;;;;;;9.03;4.83;;;;;;;5.38;60.53;100044.00;5110713;28;20200;-61
2024/03/11 00:28:24;;;;;;;6.67;5.10;;;;;;;5.38;60.46;100032.94;5111170;28;20203;-62
2024/03/11 00:30:52;;;;;;;7.33;4.27;;;;;;;5.38;60.91;100067.00;5111398;28;20303;-62
2024/03/11 00:33:22;;;;;;;7.27;4.90;;;;;;;5.33;61.11;100037.97;5104867;28;20249;-63
2024/03/11 00:35:50;;;;;;;8.47;4.90;;;;;;;5.32;60.49;100047.34;5103867;28;20299;-63
2024/03/11 00:38:18;;;;;;;7.37;4.67;;;;;;;5.33;60.47;100046.50;5109190;28;20222;-62
2024/03/11 00:40:46;;;;;;;7.67;4.97;;;;;;;5.32;60.49;100051.59;5110769;28;20633;-63
2024/03/11 00:43:14;;;;;;;8.23;4.23;;;;;;;5.30;59.92;100033.72;5111158;28;20727;-64
2024/03/11 00:45:42;;;;;;;9.17;5.03;;;;;;;5.26;59.72;100031.94;5109060;28;20210;-63
2024/03/11 00:48:11;;;;;;;8.30;5.57;;;;;;;5.24;60.31;100033.66;5110903;28;20215;-63
2024/03/11 00:50:41;;;;;;;8.20;4.77;;;;;;;5.25;60.54;100020.03;5110818;28;20228;-64
2024/03/11 00:53:09;;;;;;;8.23;5.00;;;;;;;5.24;59.93;100027.69;5110848;28;20795;-62
2024/03/11 00:55:39;;;;;;;6.47;4.67;;;;;;;5.25;59.62;100022.59;5108380;28;20698;-62
2024/03/11 00:58:07;;;;;;;6.87;3.97;;;;;;;5.22;59.16;100027.66;5113728;28;20207;-64
2024/03/11 01:00:35;;;;;;;6.20;4.30;;;;;;;5.22;59.47;100024.25;5111917;28;20204;-64
2024/03/11 01:03:03;;;;;;;9.40;4.23;;;;;;;5.22;59.43;100014.88;5114985;28;20726;-63
2024/03/11 01:05:32;;;;;;;14.07;5.03;;;;;;;5.21;59.26;100027.66;5114575;28;20200;-61
2024/03/11 01:08:02;;;;;;;8.93;4.73;;;;;;;5.23;59.04;100023.44;5114690;28;20260;-62
2024/03/11 01:10:30;;;;;;;8.40;5.53;;;;;;;5.23;59.11;100019.16;5114261;28;20200;-62
2024/03/11 01:12:58;;;;;;;9.43;4.80;;;;;;;5.24;58.83;100026.00;5113414;28;20231;-64
2024/03/11 01:15:26;;;;;;;7.87;4.63;;;;;;;5.27;58.92;100018.34;5110914;28;20226;-63
2024/03/11 01:17:55;;;;;;;7.23;4.30;;;;;;;5.27;58.06;100020.91;5114562;28;20212;-61
2024/03/11 01:20:24;;;;;;;6.70;4.83;;;;;;;5.26;58.17;100006.41;5114442;28;20211;-61
2024/03/11 01:22:54;;;;;;;7.50;5.20;;;;;;;5.22;58.60;100003.81;5114075;28;20206;-61
2024/03/11 01:25:23;;;;;;;8.70;5.60;;;;;;;5.22;58.33;100003.81;5114150;28;20223;-61
2024/03/11 01:27:52;;;;;;;8.90;4.73;;;;;;;5.20;58.32;100006.38;5108917;28;20214;-62
2024/03/11 01:30:21;;;;;;;9.20;5.50;;;;;;;5.18;58.13;100005.47;5114266;28;20204;-61
2024/03/11 01:32:49;;;;;;;6.87;4.73;;;;;;;5.22;58.18;100011.47;5108179;28;20192;-63
2024/03/11 01:35:18;;;;;;;8.43;5.37;;;;;;;5.22;58.15;100003.81;5114105;28;20659;-62
2024/03/11 01:37:46;;;;;;;8.13;5.33;;;;;;;5.21;57.81;100007.22;5113785;28;20747;-61
2024/03/11 01:40:15;;;;;;;6.83;4.90;;;;;;;5.20;57.94;99985.94;5114221;28;20204;-62
2024/03/11 01:42:47;;;;;;;8.03;4.90;;;;;;;5.21;58.04;99991.91;5113800;28;20287;-62
2024/03/11 01:45:16;;;;;;;7.93;4.87;;;;;;;5.18;57.96;100002.94;5113644;28;20655;-62
2024/03/11 01:47:45;;;;;;;9.97;5.30;;;;;;;5.16;57.19;100004.63;5109517;28;20298;-62
2024/03/11 01:50:16;;;;;;;8.47;4.90;;;;;;;5.14;57.61;100001.19;5110213;28;20199;-62
2024/03/11 01:52:49;;;;;;;9.67;4.83;;;;;;;5.14;57.73;99998.63;5110751;28;20573;-62
2024/03/11 01:55:19;;;;;;;8.23;6.03;;;;;;;5.16;57.37;99999.53;5113047;28;20253;-62
2024/03/11 01:57:50;;;;;;;8.43;4.87;;;;;;;5.13;57.65;99993.53;5113006;28;20264;-62
2024/03/11 02:00:21;;;;;;;8.67;5.37;;;;;;;5.11;57.27;99985.84;5112956;28;20257;-61
2024/03/11 02:02:53;;;;;;;9.47;5.93;;;;;;;5.08;57.20;99988.34;5113061;28;20199;-62
2024/03/11 02:05:23;;;;;;;7.93;4.80;;;;;;;5.05;57.56;99990.91;5111577;28;20219;-61
2024/03/11 02:07:55;;;;;;;7.70;5.23;;;;;;;5.04;57.41;99974.72;5112046;28;20199;-63
2024/03/11 02:10:24;;;;;;;6.13;4.00;;;;;;;5.04;57.06;100004.50;5113186;28;20231;-63
2024/03/11 02:12:55;;;;;;;7.17;4.97;;;;;;;5.03;57.36;99982.34;5108668;28;20674;-61
2024/03/11 02:15:24;;;;;;;8.17;5.47;;;;;;;5.03;57.27;99973.00;5112727;28;20721;-62
2024/03/11 02:17:53;;;;;;;9.47;4.57;;;;;;;5.02;56.89;99980.66;5110817;28;20246;-62
2024/03/11 02:20:22;;;;;;;6.17;4.43;;;;;;;5.03;57.28;99984.91;5112655;28;20222;-62
2024/03/11 02:22:52;;;;;;;8.70;5.07;;;;;;;5.02;57.23;99980.66;5108369;28;20200;-63
2024/03/11 02:25:26;;;;;;;8.80;5.10;;;;;;;5.02;57.28;99993.41;5107552;28;20241;-62
2024/03/11 02:27:57;;;;;;;9.43;5.60;;;;;;;5.00;57.25;99983.16;5112262;28;20199;-62
2024/03/11 02:30:25;;;;;;;9.83;5.60;;;;;;;5.00;57.42;99972.97;5112777;28;20200;-62
2024/03/11 02:32:54;;;;;;;8.47;5.77;;;;;;;5.01;57.05;99972.13;5112004;28;20212;-62
2024/03/11 02:35:22;;;;;;;9.33;4.87;;;;;;;5.01;57.29;99977.25;5112264;28;20196;-63
2024/03/11 02:37:51;;;;;;;9.93;5.50;;;;;;;5.00;57.66;99978.06;5111210;27;20223;-63
2024/03/11 02:40:19;;;;;;;8.90;5.93;;;;;;;4.99;57.28;99975.50;5110714;28;20589;-63
2024/03/11 02:42:48;;;;;;;8.93;5.60;;;;;;;4.99;57.21;99976.38;5112395;28;20200;-61
2024/03/11 02:45:19;;;;;;;10.43;5.00;;;;;;;4.97;57.27;99980.63;5105081;28;20210;-61
2024/03/11 02:47:49;;;;;;;8.37;4.83;;;;;;;4.98;57.48;99984.03;5112641;28;20678;-63
2024/03/11 02:50:18;;;;;;;9.37;5.83;;;;;;;4.98;57.25;99963.59;5112082;28;20242;-63
2024/03/11 02:52:46;;;;;;;8.07;5.70;;;;;;;4.97;57.08;99967.84;5111929;28;20608;-61
2024/03/11 02:55:18;;;;;;;7.90;4.90;;;;;;;4.96;57.44;99966.09;5111784;28;20200;-61
2024/03/11 02:57:48;;;;;;;10.10;5.40;;;;;;;4.97;57.52;99964.41;5110761;28;20222;-61
2024/03/11 03:00:17;;;;;;;10.77;5.23;;;;;;;4.94;57.11;99977.16;5112831;27;20590;-61
2024/03/11 03:02:49;;;;;;;5.77;4.63;;;;;;;4.89;57.58;99969.44;5111764;28;20208;-61
2024/03/11 03:05:18;;;;;;;8.30;5.50;;;;;;;4.83;57.67;99954.94;5111752;28;20244;-62
2024/03/11 03:07:47;;;;;;;8.43;5.50;;;;;;;4.89;57.33;99976.25;5111738;28;20196;-62
2024/03/11 03:10:15;;;;;;;9.30;5.73;;;;;;;4.89;57.69;99974.53;5111692;28;20207;-61
2024/03/11 03:12:43;;;;;;;10.93;5.93;;;;;;;4.89;57.29;99978.81;5112616;28;20260;-62
2024/03/11 03:15:13;;;;;;;7.93;4.90;;;;;;;4.85;57.41;99978.75;5111054;28;20240;-62
2024/03/11 03:17:40;;;;;;;7.80;4.87;;;;;;;4.87;57.40;99965.19;5112067;28;20287;-61
2024/03/11 03:20:11;;;;;;;7.63;4.40;;;;;;;4.83;57.24;99971.94;5105199;28;20646;-62
2024/03/11 03:22:39;;;;;;;8.97;4.93;;;;;;;4.83;57.64;99954.94;5110996;28;20549;-61
2024/03/11 03:25:09;;;;;;;9.77;4.90;;;;;;;4.80;57.58;99954.03;5111517;28;20694;-62
2024/03/11 03:27:37;;;;;;;8.30;4.97;;;;;;;4.79;57.17;99949.78;5111591;28;20204;-62
2024/03/11 03:30:06;;;;;;;8.63;5.43;;;;;;;4.73;57.44;99937.81;5104108;28;20202;-62
2024/03/11 03:32:35;;;;;;;8.90;5.67;;;;;;;4.71;57.45;99949.69;5111459;28;20199;-62
2024/03/11 03:35:05;;;;;;;9.63;5.30;;;;;;;4.74;57.46;99946.31;5110908;28;20287;-63
2024/03/11 03:37:34;;;;;;;10.60;4.90;;;;;;;4.74;57.32;99954.81;5108834;28;20223;-62
2024/03/11 03:40:03;;;;;;;8.90;5.27;;;;;;;4.74;57.72;99954.81;5110167;28;20235;-62
2024/03/11 03:42:31;;;;;;;9.83;4.87;;;;;;;4.72;57.38;99953.97;5105893;28;20204;-62
2024/03/11 03:44:59;;;;;;;7.53;5.13;;;;;;;4.68;57.31;99954.78;5110669;28;20573;-61
2024/03/11 03:47:31;;;;;;;7.43;4.90;;;;;;;4.67;57.50;99955.59;5111152;28;20215;-62
2024/03/11 03:50:00;;;;;;;9.57;5.93;;;;;;;4.67;57.73;99975.16;5111503;27;20246;-62
2024/03/11 03:52:29;;;;;;;9.90;6.20;;;;;;;4.64;57.54;99962.38;5111219;28;20200;-62
2024/03/11 03:54:57;;;;;;;11.33;5.60;;;;;;;4.60;57.91;99952.16;5109893;27;20210;-62
2024/03/11 03:57:27;;;;;;;10.17;5.97;;;;;;;4.62;58.25;99959.81;5105230;28;20253;-62
2024/03/11 03:59:55;;;;;;;11.33;6.30;;;;;;;4.62;57.96;99959.81;5109281;28;20307;-61
2024/03/11 04:02:23;;;;;;;11.87;5.33;;;;;;;4.65;57.73;99959.00;5111386;28;20223;-62
2024/03/11 04:04:51;;;;;;;9.60;5.77;;;;;;;4.66;57.81;99961.56;5111363;28;20204;-62
2024/03/11 04:07:21;;;;;;;7.83;5.30;;;;;;;4.64;57.69;99952.16;5110841;28;20203;-63
2024/03/11 04:09:49;;;;;;;9.70;5.53;;;;;;;4.60;57.79;99964.03;5111349;28;20295;-63
2024/03/11 04:12:17;;;;;;;8.13;5.07;;;;;;;4.58;58.19;99950.41;5111806;28;20203;-63
2024/03/11 04:14:46;;;;;;;11.53;5.03;;;;;;;4.59;57.55;99954.66;5109359;28;20323;-64
2024/03/11 04:17:14;;;;;;;8.87;6.10;;;;;;;4.57;58.11;99953.81;5109954;27;20577;-62
2024/03/11 04:19:42;;;;;;;8.93;6.20;;;;;;;4.57;57.86;99951.25;5110993;28;20652;-64
2024/03/11 04:22:11;;;;;;;11.90;5.83;;;;;;;4.53;58.16;99962.28;5111072;28;20211;-61
2024/03/11 04:24:41;;;;;;;8.37;5.33;;;;;;;4.51;57.95;99951.19;5110092;28;20200;-61
2024/03/11 04:27:11;;;;;;;8.33;4.83;;;;;;;4.48;57.81;99946.03;5110403;28;20204;-61
2024/03/11 04:29:39;;;;;;;8.27;5.13;;;;;;;4.44;58.03;99951.94;5110836;28;20200;-63
2024/03/11 04:32:09;;;;;;;8.17;5.03;;;;;;;4.43;58.71;99957.91;5105195;28;20797;-62
2024/03/11 04:34:39;;;;;;;10.87;5.57;;;;;;;4.40;58.27;99956.16;5106195;28;20210;-62
2024/03/11 04:37:07;;;;;;;8.50;5.00;;;;;;;4.35;58.81;99980.75;5114242;28;20245;-60
2024/03/11 04:39:35;;;;;;;10.50;5.40;;;;;;;4.34;58.66;99953.53;5114601;28;20216;-62
2024/03/11 04:42:05;;;;;;;10.17;4.87;;;;;;;4.34;58.61;99974.81;5112661;28;20218;-62
2024/03/11 04:44:33;;;;;;;12.97;5.00;;;;;;;4.32;59.17;99955.22;5115179;28;20207;-63
2024/03/11 04:47:03;;;;;;;10.13;5.90;;;;;;;4.30;59.14;99962.81;5114525;28;20225;-61
2024/03/11 04:49:31;;;;;;;7.93;5.33;;;;;;;4.31;59.21;99984.97;5114778;28;20199;-62
2024/03/11 04:51:59;;;;;;;9.30;5.33;;;;;;;4.29;59.10;99955.16;5114685;28;20707;-61
2024/03/11 04:54:27;;;;;;;9.50;5.57;;;;;;;4.26;58.59;99961.06;5114997;28;20629;-61
2024/03/11 04:56:55;;;;;;;9.20;5.53;;;;;;;4.27;58.89;99965.38;5114404;28;20236;-62
2024/03/11 04:59:25;;;;;;;7.67;5.23;;;;;;;4.26;59.10;99940.69;5114517;27;20212;-61
2024/03/11 05:01:53;;;;;;;7.87;4.90;;;;;;;4.24;59.01;99947.47;5109873;28;20715;-63
2024/03/11 05:04:20;;;;;;;8.07;5.10;;;;;;;4.23;58.95;99962.72;5112502;28;20207;-62
2024/03/11 05:06:49;;;;;;;8.37;5.73;;;;;;;4.23;59.19;99945.72;5114020;28;20203;-62
2024/03/11 05:09:17;;;;;;;7.80;4.90;;;;;;;4.20;59.01;99955.91;5114341;28;20188;-63
2024/03/11 05:11:45;;;;;;;9.80;5.60;;;;;;;4.19;59.44;99941.44;5113576;28;20252;-62
2024/03/11 05:14:13;;;;;;;7.83;5.50;;;;;;;4.17;59.33;99955.88;5113831;28;20232;-62
2024/03/11 05:16:42;;;;;;;9.33;5.27;;;;;;;4.14;59.29;99950.72;5111339;28;20195;-62
2024/03/11 05:19:12;;;;;;;9.47;5.03;;;;;;;4.15;59.64;99944.78;5114122;28;20219;-61
2024/03/11 05:21:40;;;;;;;9.90;5.80;;;;;;;4.14;59.72;99960.94;5106428;28;20308;-61
2024/03/11 05:24:08;;;;;;;7.80;5.17;;;;;;;4.12;59.85;99952.38;5113993;28;20245;-61
2024/03/11 05:26:36;;;;;;;9.70;5.27;;;;;;;4.14;59.60;99957.53;5112801;28;20277;-63
2024/03/11 05:29:04;;;;;;;11.37;5.30;;;;;;;4.12;59.67;99952.38;5114197;28;21704;-62
2024/03/11 05:31:32;;;;;;;8.80;5.90;;;;;;;4.11;59.40;99956.63;5112601;28;20565;-61
2024/03/11 05:34:02;;;;;;;12.10;6.00;;;;;;;4.09;59.73;99949.84;5114155;28;20227;-63
2024/03/11 05:36:30;;;;;;;9.10;5.53;;;;;;;4.08;60.23;99960.84;5113402;28;20794;-61
2024/03/11 05:38:57;;;;;;;10.13;5.97;;;;;;;4.04;60.04;99959.94;5113824;28;20216;-60
2024/03/11 05:41:26;;;;;;;9.90;5.93;;;;;;;4.04;60.11;99964.19;5112829;28;20581;-61
2024/03/11 05:43:53;;;;;;;9.50;5.43;;;;;;;4.00;60.94;99968.38;5118633;27;20603;-63
2024/03/11 05:46:21;;;;;;;8.03;5.33;;;;;;;3.99;60.81;99976.88;5117298;27;20683;-61
2024/03/11 05:48:51;;;;;;;10.77;5.53;;;;;;;3.96;60.95;99960.69;5114866;28;20570;-62
2024/03/11 05:51:20;;;;;;;7.67;4.67;;;;;;;3.96;60.72;99973.44;5114304;28;20573;-62
2024/03/11 05:53:52;;;;;;;9.90;5.43;;;;;;;3.99;60.81;99988.78;5114565;28;20195;-63
2024/03/11 05:56:22;;;;;;;7.83;5.80;;;;;;;3.95;61.43;99982.78;5114390;28;20659;-61
2024/03/11 05:58:51;;;;;;;9.43;5.77;;;;;;;3.92;61.42;99980.19;5114248;28;20235;-62
2024/03/11 06:01:20;;;;;;;7.10;5.93;;;;;;;3.90;61.68;99951.25;5115124;27;20218;-62
2024/03/11 06:03:49;;;;;;;9.60;6.07;;;;;;;3.90;61.72;99976.72;5115820;27;20204;-62
2024/03/11 06:06:17;;;;;;;8.70;5.50;;;;;;;3.90;61.50;99976.72;5108767;28;20204;-62
2024/03/11 06:08:46;;;;;;;8.10;5.70;;;;;;;3.90;61.68;99980.97;5113808;28;20249;-62
2024/03/11 06:11:14;;;;;;;11.67;6.03;;;;;;;3.90;62.30;99983.53;5113402;28;20214;-64
2024/03/11 06:13:42;;;;;;;8.30;4.90;;;;;;;3.90;62.37;99989.47;5108882;27;20250;-63
2024/03/11 06:16:12;;;;;;;9.27;4.83;;;;;;;3.88;62.95;99986.91;5112788;28;20208;-64
2024/03/11 06:18:40;;;;;;;10.00;6.13;;;;;;;3.92;63.09;99999.72;5110527;27;20228;-64
2024/03/11 06:21:10;;;;;;;10.07;5.93;;;;;;;3.90;63.11;99994.56;5110848;28;20719;-64
2024/03/11 06:23:38;;;;;;;10.40;5.30;;;;;;;3.92;63.40;99994.63;5105158;28;20671;-63
2024/03/11 06:26:08;;;;;;;7.67;4.47;;;;;;;3.91;62.55;99995.47;5108387;28;20288;-64
2024/03/11 06:28:36;;;;;;;9.17;6.17;;;;;;;3.91;63.23;99998.00;5105281;27;20660;-64
2024/03/11 06:31:04;;;;;;;7.37;5.20;;;;;;;3.88;63.87;99986.06;5112706;27;20208;-64
2024/03/11 06:33:34;;;;;;;9.97;6.10;;;;;;;3.91;63.44;99998.00;5114515;27;20200;-64
2024/03/11 06:36:03;;;;;;;12.17;6.30;;;;;;;3.88;63.57;99999.66;5112451;28;20726;-63
2024/03/11 06:38:31;;;;;;;9.17;6.27;;;;;;;3.91;63.27;100003.09;5111485;28;20197;-65
2024/03/11 06:40:59;;;;;;;12.03;5.80;;;;;;;3.87;63.22;99987.75;5111220;28;20196;-64
2024/03/11 06:43:28;;;;;;;8.43;5.83;;;;;;;3.84;63.17;100013.19;5108888;28;20244;-64
2024/03/11 06:45:57;;;;;;;10.17;6.47;;;;;;;3.85;64.40;100004.72;5111984;28;20207;-65
2024/03/11 06:48:25;;;;;;;8.50;5.60;;;;;;;3.84;63.87;99997.06;5111397;28;20218;-66
2024/03/11 06:50:53;;;;;;;11.23;6.23;;;;;;;3.84;63.88;100004.69;5109391;28;20200;-65
2024/03/11 06:53:21;;;;;;;10.27;6.10;;;;;;;3.82;63.93;100001.25;5112507;28;20227;-65
2024/03/11 06:55:49;;;;;;;10.60;6.53;;;;;;;3.81;63.73;100002.09;5111923;28;20253;-64
2024/03/11 06:58:17;;;;;;;11.93;6.40;;;;;;;3.81;63.64;100000.41;5111633;28;20662;-64
2024/03/11 07:00:47;;;;;;;8.80;6.00;;;;;;;3.81;64.02;99997.84;5111064;28;20667;-64
2024/03/11 07:03:15;;;;;;;13.53;5.97;;;;;;;3.84;64.13;99997.91;5112235;28;20256;-65
2024/03/11 07:05:43;;;;;;;10.47;6.50;;;;;;;3.82;64.06;100002.13;5108034;27;20593;-63
2024/03/11 07:08:11;;;;;;;11.03;6.37;;;;;;;3.80;64.02;99996.16;5102699;28;20631;-63
2024/03/11 07:10:39;;;;;;;9.87;5.70;;;;;;;3.79;64.38;99999.53;5111581;28;20200;-64
2024/03/11 07:13:07;;;;;;;8.03;5.57;;;;;;;3.76;65.32;100008.84;5111769;28;20200;-62
2024/03/11 07:15:35;;;;;;;9.00;6.27;;;;;;;3.71;65.16;99990.06;5110956;28;20207;-63
2024/03/11 07:18:08;;;;;;;7.73;5.10;;;;;;;3.70;65.89;100009.59;5111406;28;20225;-64
2024/03/11 07:20:38;;;;;;;9.83;5.93;;;;;;;3.68;66.07;99993.41;5112364;27;20302;-64
2024/03/11 07:23:08;;;;;;;10.30;6.83;;;;;;;3.65;66.46;100001.03;5111476;28;20666;-63
2024/03/11 07:25:36;;;;;;;11.33;6.40;;;;;;;3.63;67.32;100000.97;5111717;28;20313;-63
2024/03/11 07:28:05;;;;;;;12.43;6.80;;;;;;;3.59;67.80;99998.38;5109460;28;20283;-64
2024/03/11 07:30:34;;;;;;;8.47;5.37;;;;;;;3.53;68.28;100001.66;5112140;28;20235;-63
2024/03/11 07:33:08;;;;;;;9.43;5.80;;;;;;;3.46;69.05;99996.44;5111945;28;20208;-63
2024/03/11 07:35:37;;;;;;;10.43;7.17;;;;;;;3.44;69.10;99995.56;5097371;28;20206;-64
2024/03/11 07:38:06;;;;;;;9.70;6.63;;;;;;;3.43;70.73;99989.63;5111479;28;20667;-62
2024/03/11 07:40:34;;;;;;;9.27;5.70;;;;;;;3.42;70.51;99992.13;5109201;28;20761;-62
2024/03/11 07:43:03;;;;;;;9.17;5.60;;;;;;;3.35;70.26;100014.97;5112113;28;20727;-62
2024/03/11 07:45:31;;;;;;;12.47;7.50;;;;;;;3.32;70.96;99991.16;5111693;28;20642;-64
2024/03/11 07:48:01;;;;;;;10.13;6.93;;;;;;;3.33;71.27;100015.78;5109008;28;20207;-62
2024/03/11 07:50:30;;;;;;;11.23;6.07;;;;;;;3.32;71.62;100016.59;5101931;28;20192;-63
2024/03/11 07:52:58;;;;;;;12.13;6.53;;;;;;;3.34;71.89;100017.47;5111235;28;20269;-62
2024/03/11 07:55:28;;;;;;;10.73;6.70;;;;;;;3.36;72.27;100019.22;5110076;28;20219;-61
2024/03/11 07:57:57;;;;;;;12.20;7.33;;;;;;;3.39;72.49;100021.84;5111183;28;20290;-63
2024/03/11 08:00:30;;;;;;;11.97;7.10;;;;;;;3.43;72.43;100020.19;5109729;28;20227;-62
2024/03/11 08:02:59;;;;;;;11.63;7.30;;;;;;;3.48;72.77;100022.81;5113172;27;20277;-61
2024/03/11 08:05:28;;;;;;;11.13;7.70;;;;;;;3.51;72.57;100028.81;5110959;28;20195;-63
2024/03/11 08:07:58;;;;;;;10.80;6.33;;;;;;;3.54;72.11;100017.81;5109980;28;20253;-62
2024/03/11 08:10:26;;;;;;;12.67;7.70;;;;;;;3.51;71.57;100028.81;5110762;28;20244;-62
2024/03/11 08:12:55;;;;;;;12.70;7.47;;;;;;;3.49;71.99;100021.97;5109280;28;20231;-62
2024/03/11 08:15:23;;;;;;;9.00;6.90;;;;;;;3.50;72.15;100029.66;5110849;28;20200;-63
2024/03/11 08:17:52;;;;;;;10.83;6.83;;;;;;;3.56;72.47;100021.25;5111307;28;20224;-62
2024/03/11 08:20:21;;;;;;;11.20;7.17;;;;;;;3.67;73.01;100034.16;5111789;28;20231;-63
2024/03/11 08:22:52;;;;;;;11.73;7.20;;;;;;;3.74;72.83;100025.78;5111303;28;20235;-61
2024/03/11 08:25:25;;;;;;;10.37;7.17;;;;;;;3.77;72.02;100036.88;5110613;28;20208;-64
2024/03/11 08:27:54;;;;;;;12.87;7.50;;;;;;;3.74;72.18;100021.53;5107337;28;20211;-63
2024/03/11 08:30:23;;;;;;;14.37;7.97;;;;;;;3.83;72.36;100031.88;5107717;28;20294;-63
2024/03/11 08:32:51;;;;;;;11.57;7.50;;;;;;;3.84;70.80;100033.59;5111253;28;20254;-63
2024/03/11 08:35:21;;;;;;;13.10;7.50;;;;;;;3.82;72.25;100025.06;5101374;28;20541;-62
2024/03/11 08:37:49;;;;;;;11.00;7.17;;;;;;;3.87;71.82;100026.00;5109437;28;20200;-63
2024/03/11 08:40:19;;;;;;;10.67;6.80;;;;;;;3.97;71.99;100032.06;5109386;28;20228;-61
2024/03/11 08:42:50;;;;;;;12.43;7.43;;;;;;;4.06;71.25;100033.91;5101101;28;20200;-61
2024/03/11 08:45:22;;;;;;;11.43;7.77;;;;;;;4.13;71.06;100025.53;5110097;28;20678;-61
2024/03/11 08:47:51;;;;;;;12.73;7.57;;;;;;;4.13;69.97;100022.13;5109422;28;20214;-63
2024/03/11 08:50:21;;;;;;;11.80;7.23;;;;;;;4.21;69.84;100029.03;5110276;28;20203;-62
2024/03/11 08:52:51;;;;;;;13.33;7.87;;;;;;;4.28;70.12;100022.31;5111355;28;20682;-63
2024/03/11 08:55:19;;;;;;;12.70;7.10;;;;;;;4.30;68.37;100020.63;5110374;28;20257;-62
2024/03/11 08:57:49;;;;;;;11.53;7.07;;;;;;;4.35;68.50;100013.91;5110877;28;20599;-62
2024/03/11 09:00:18;;;;;;;13.37;7.40;;;;;;;4.41;67.94;100013.13;5108001;28;20223;-62
2024/03/11 09:02:47;;;;;;;11.80;7.60;;;;;;;4.44;68.17;100020.81;5111093;28;20636;-62
2024/03/11 09:05:17;;;;;;;9.03;6.73;;;;;;;4.50;67.10;100031.13;5110775;28;20663;-64
2024/03/11 09:07:47;;;;;;;10.97;6.60;;;;;;;4.57;66.85;100027.81;5110856;28;20192;-63
2024/03/11 09:10:16;;;;;;;10.27;7.03;;;;;;;4.63;67.36;100024.44;5110267;28;20311;-63
2024/03/11 09:12:44;;;;;;;11.13;7.63;;;;;;;4.73;67.15;100024.59;5109961;28;20236;-64
2024/03/11 09:15:16;;;;;;;11.20;7.50;;;;;;;4.87;67.03;100029.00;5109944;28;20782;-62
2024/03/11 09:17:49;;;;;;;11.77;7.17;;;;;;;4.98;66.74;100027.44;5111403;28;20200;-65
2024/03/11 09:20:20;;;;;;;12.00;6.97;;;;;;;5.06;65.86;100038.56;5110540;28;20231;-62
2024/03/11 09:22:49;;;;;;;15.63;7.60;;;;;;;5.03;66.00;100036.84;5113579;28;20267;-65
2024/03/11 09:25:18;;;;;;;12.83;7.60;;;;;;;5.02;66.61;100031.72;5114147;28;20287;-63
2024/03/11 09:27:47;;;;;;;11.37;7.00;;;;;;;5.00;67.05;100028.28;5114683;28;20714;-62
2024/03/11 09:30:17;;;;;;;13.57;7.30;;;;;;;4.99;67.78;100045.31;5114262;28;20240;-63
2024/03/11 09:32:46;;;;;;;11.27;7.07;;;;;;;4.97;67.73;100033.34;5114259;28;20200;-64
2024/03/11 09:35:16;;;;;;;15.33;7.80;;;;;;;4.92;67.82;100035.84;5114020;28;20612;-64
2024/03/11 09:37:46;;;;;;;16.67;7.83;;;;;;;4.82;68.08;100040.03;5114116;28;20207;-61
2024/03/11 09:40:17;;;;;;;13.37;7.53;;;;;;;4.78;68.76;100037.38;5113369;28;20208;-65
2024/03/11 09:42:47;;;;;;;11.73;7.67;;;;;;;4.77;69.42;100043.34;5112907;27;20196;-62
2024/03/11 09:45:20;;;;;;;11.33;7.13;;;;;;;4.78;69.97;100037.38;5112468;28;20728;-65
2024/03/11 09:47:52;;;;;;;11.60;7.37;;;;;;;4.80;69.68;100036.59;5113512;28;20208;-64
2024/03/11 09:50:27;;;;;;;10.87;7.13;;;;;;;4.80;70.74;100041.69;5114423;28;20242;-63
2024/03/11 09:52:57;;;;;;;9.30;6.70;;;;;;;4.81;70.75;100042.53;5113932;28;20196;-64
2024/03/11 09:55:28;;;;;;;13.17;8.13;;;;;;;4.87;71.22;100026.44;5113774;28;20204;-63
2024/03/11 09:58:05;;;;;;;13.73;8.30;;;;;;;4.91;71.03;100035.84;5112228;27;20219;-63
2024/03/11 10:00:48;;;;;;;10.70;6.87;;;;;;;4.92;71.06;100032.44;5113725;28;20231;-65
2024/03/11 10:03:20;;;;;;;12.10;7.30;;;;;;;4.89;71.43;100032.41;5110142;28;20196;-63
2024/03/11 10:05:56;;;;;;;11.07;7.53;;;;;;;4.85;72.13;100029.81;5113122;28;20227;-62
2024/03/11 10:08:27;;;;;;;13.97;8.27;;;;;;;4.83;72.21;100026.41;5112928;27;20199;-63
2024/03/11 10:11:12;;;;;;;11.47;7.20;;;;;;;4.77;72.61;100022.94;5101729;28;20224;-62
2024/03/11 10:13:40;;;;;;;12.57;7.60;;;;;;;4.69;73.31;100038.16;5112708;28;20231;-63
2024/03/11 10:16:17;;;;;;;13.77;7.90;;;;;;;4.59;74.18;100031.22;5110466;27;21004;-64
2024/03/11 10:19:00;;;;;;;10.77;7.90;;;;;;;4.56;75.21;100041.38;5113415;28;20199;-64
2024/03/11 10:21:31;;;;;;;13.07;7.90;;;;;;;4.51;75.67;100031.13;5113550;28;20212;-64
2024/03/11 10:24:01;;;;;;;12.67;8.63;;;;;;;4.53;76.01;100033.72;5113124;28;20199;-64
2024/03/11 10:26:33;;;;;;;14.67;8.03;;;;;;;4.53;75.61;100046.47;5111156;28;20630;-67
2024/03/11 10:29:02;;;;;;;13.57;9.00;;;;;;;4.49;75.98;100034.47;5111218;28;20291;-64
2024/03/11 10:31:33;;;;;;;14.37;8.17;;;;;;;4.45;76.92;100035.28;5113325;28;20192;-64
2024/03/11 10:34:09;;;;;;;12.30;7.80;;;;;;;4.39;76.96;100028.44;5112047;28;20207;-65
2024/03/11 10:36:40;;;;;;;12.20;8.03;;;;;;;4.37;77.34;100032.63;5111886;28;20218;-60
2024/03/11 10:39:17;;;;;;;15.10;8.80;;;;;;;4.39;77.76;100042.88;5103751;28;20230;-67
2024/03/11 10:41:46;;;;;;;16.80;8.10;;;;;;;4.39;77.89;100045.44;5112731;28;20220;-62
2024/03/11 10:44:16;;;;;;;10.83;7.77;;;;;;;4.43;78.80;100042.06;5109637;28;20302;-60
2024/03/11 10:46:45;;;;;;;12.83;8.60;;;;;;;4.43;77.96;100037.81;5111604;28;20785;-62
2024/03/11 10:49:13;;;;;;;14.20;8.20;;;;;;;4.43;77.13;100032.72;5112961;28;20726;-65
2024/03/11 10:51:46;;;;;;;11.97;7.70;;;;;;;4.39;76.53;100033.53;5112599;28;20192;-63
2024/03/11 10:54:22;;;;;;;13.33;7.53;;;;;;;4.36;77.51;100024.13;5107579;28;20629;-63
2024/03/11 10:56:55;;;;;;;12.80;8.60;;;;;;;4.28;76.88;100019.78;5108607;27;20243;-63
2024/03/11 10:59:29;;;;;;;11.47;6.83;;;;;;;4.35;77.45;100022.44;5112642;28;20647;-64
2024/03/11 11:01:58;;;;;;;14.47;7.80;;;;;;;4.39;77.88;100023.31;5109578;28;20649;-62
2024/03/11 11:04:29;;;;;;;10.17;7.53;;;;;;;4.41;77.03;100019.09;5112017;28;20693;-63
2024/03/11 11:06:59;;;;;;;11.13;7.67;;;;;;;4.41;77.30;100026.72;5112277;28;20204;-64
2024/03/11 11:09:28;;;;;;;11.57;7.27;;;;;;;4.41;77.01;100015.69;5112768;28;20567;-63
2024/03/11 11:11:57;;;;;;;11.50;7.03;;;;;;;4.40;77.20;100025.03;5112810;28;20207;-63
2024/03/11 11:14:27;;;;;;;12.27;8.63;;;;;;;4.40;77.91;100032.69;5111021;28;20722;-63
2024/03/11 11:17:01;;;;;;;13.10;7.70;;;;;;;4.43;78.18;100021.66;5112271;28;20203;-65
2024/03/11 11:19:32;;;;;;;11.03;7.17;;;;;;;4.42;77.05;100027.59;5111311;28;20204;-63
2024/03/11 11:22:02;;;;;;;13.17;8.63;;;;;;;4.42;77.97;100027.59;5112127;28;20273;-63
2024/03/11 11:24:39;;;;;;;12.03;7.73;;;;;;;4.45;78.10;100030.19;5112275;27;20670;-62
2024/03/11 11:27:13;;;;;;;16.10;9.80;;;;;;;4.50;78.55;100036.22;5112159;28;20223;-61
2024/03/11 11:29:46;;;;;;;14.73;8.43;;;;;;;4.49;78.11;100034.47;5112016;28;20564;-62
2024/03/11 11:32:18;;;;;;;12.80;8.47;;;;;;;4.50;78.25;100024.31;5111872;28;20283;-62
2024/03/11 11:34:47;;;;;;;13.57;8.07;;;;;;;4.51;78.97;100032.81;5108703;28;20200;-65
2024/03/11 11:37:34;;;;;;;12.83;8.13;;;;;;;4.51;79.52;100043.88;5111734;28;20573;-63
2024/03/11 11:40:29;;;;;;;15.10;8.73;;;;;;;4.48;79.70;100033.63;5109755;28;20208;-61
2024/03/11 11:42:58;;;;;;;14.10;7.60;;;;;;;4.39;79.53;100033.53;5110661;28;20690;-63
2024/03/11 11:45:54;;;;;;;14.23;7.87;;;;;;;4.28;81.40;100028.28;5112618;28;20269;-64